Time;durP1;ratioP1;P1;durP2;ratioP2;P2;SDS_P1;SDS_P2;PMS_P1;PMS_P2;Temp;Humidity;BMP_temperature;BMP_pressure;BME280_temperature;BME280_humidity;BME280_pressure;Samples;Min_cycle;Max_cycle;Signal;HPM_P1;HPM_P2
2023/03/11 00:00:03;;;;;;;42.80;7.00;;;13.70;56.00;;;;;;5070376;28;20210;-90
2023/03/11 00:02:30;;;;;;;30.17;6.17;;;13.70;56.00;;;;;;5069752;28;20242;-91
2023/03/11 00:04:57;;;;;;;31.10;6.17;;;13.70;56.00;;;;;;5071212;28;20211;-90
2023/03/11 00:07:24;;;;;;;19.80;5.47;;;13.70;56.10;;;;;;5070957;28;20180;-89
2023/03/11 00:09:50;;;;;;;37.40;6.90;;;13.70;56.10;;;;;;5070825;28;20665;-90
2023/03/11 00:12:19;;;;;;;23.20;5.37;;;13.70;56.00;;;;;;5067159;28;20696;-89
2023/03/11 00:14:45;;;;;;;36.53;6.57;;;13.60;56.00;;;;;;5068055;28;20211;-89
2023/03/11 00:17:12;;;;;;;27.87;5.80;;;13.70;56.10;;;;;;5050715;28;20202;-89
2023/03/11 00:19:40;;;;;;;28.03;6.07;;;13.70;56.10;;;;;;5050819;28;20208;-90
2023/03/11 00:22:07;;;;;;;27.87;5.77;;;13.60;56.00;;;;;;5057797;28;20586;-89
2023/03/11 00:24:34;;;;;;;22.67;5.33;;;13.60;56.00;;;;;;5070778;28;20210;-89
2023/03/11 00:27:01;;;;;;;29.80;6.73;;;13.60;56.00;;;;;;5069072;28;20205;-89
2023/03/11 00:29:32;;;;;;;26.30;5.67;;;13.60;56.00;;;;;;5070881;28;20198;-89
2023/03/11 00:31:59;;;;;;;43.10;6.93;;;13.60;56.00;;;;;;5068833;28;20215;-88
2023/03/11 00:34:26;;;;;;;24.70;5.60;;;13.60;56.00;;;;;;5069110;28;20207;-89
2023/03/11 00:36:53;;;;;;;33.30;6.13;;;13.60;56.00;;;;;;5070308;28;20996;-89
2023/03/11 00:39:20;;;;;;;38.23;6.53;;;13.60;56.00;;;;;;5070166;28;20669;-90
2023/03/11 00:41:47;;;;;;;25.97;6.17;;;13.60;56.00;;;;;;5066721;28;20571;-89
2023/03/11 00:44:14;;;;;;;25.87;5.73;;;13.60;56.00;;;;;;5068828;28;20288;-89
2023/03/11 00:46:42;;;;;;;26.17;5.87;;;13.50;55.90;;;;;;5069951;28;20294;-89
2023/03/11 00:49:10;;;;;;;19.27;4.83;;;13.50;55.90;;;;;;5070593;28;20206;-89
2023/03/11 00:51:36;;;;;;;50.63;7.10;;;13.50;55.90;;;;;;5068082;28;20561;-89
2023/03/11 00:54:04;;;;;;;50.03;7.73;;;13.50;55.90;;;;;;5069755;28;20199;-89
2023/03/11 00:56:31;;;;;;;27.30;5.63;;;13.50;55.90;;;;;;5068511;28;20333;-89
2023/03/11 00:58:57;;;;;;;32.20;6.10;;;13.50;55.90;;;;;;5070120;28;20234;-89
2023/03/11 01:01:24;;;;;;;31.07;5.97;;;13.50;55.90;;;;;;5066283;28;20203;-88
2023/03/11 01:03:53;;;;;;;29.67;5.60;;;13.50;55.90;;;;;;5069040;28;20238;-89
2023/03/11 01:06:20;;;;;;;24.23;6.03;;;13.60;56.00;;;;;;5071739;28;20199;-90
2023/03/11 01:08:47;;;;;;;29.63;6.30;;;13.50;55.90;;;;;;5067783;28;20291;-89
2023/03/11 01:11:13;;;;;;;28.70;6.13;;;13.50;55.90;;;;;;5070331;28;20212;-89
2023/03/11 01:13:40;;;;;;;26.30;5.67;;;13.40;55.80;;;;;;5068870;28;20205;-89
2023/03/11 01:16:08;;;;;;;26.97;6.43;;;13.50;55.90;;;;;;5070051;28;20208;-89
2023/03/11 01:18:35;;;;;;;16.90;5.43;;;13.40;56.40;;;;;;5069059;28;20225;-89
2023/03/11 01:21:04;;;;;;;25.53;5.80;;;13.40;55.80;;;;;;5067860;28;20230;-89
2023/03/11 01:23:31;;;;;;;28.33;6.40;;;13.40;55.80;;;;;;5067078;28;20223;-89
2023/03/11 01:25:58;;;;;;;31.83;6.70;;;13.40;55.80;;;;;;5067244;28;20617;-89
2023/03/11 01:28:25;;;;;;;28.33;6.43;;;13.40;55.80;;;;;;5069252;28;20598;-89
2023/03/11 01:30:52;;;;;;;19.97;5.50;;;13.40;55.80;;;;;;5068369;28;20570;-89
2023/03/11 01:33:20;;;;;;;33.23;6.53;;;13.40;55.80;;;;;;5069041;28;20211;-89
2023/03/11 01:35:48;;;;;;;24.03;5.40;;;13.40;55.80;;;;;;5068875;28;20205;-89
2023/03/11 01:38:17;;;;;;;28.27;6.20;;;13.30;55.70;;;;;;5066699;28;20204;-89
2023/03/11 01:40:45;;;;;;;35.37;6.43;;;13.40;55.80;;;;;;5067377;28;20285;-89
2023/03/11 01:43:40;;;;;;;27.60;6.00;;;13.30;55.70;;;;;;5067876;28;20954;-89
2023/03/11 01:46:13;;;;;;;26.20;5.73;;;13.30;55.70;;;;;;5066568;28;20195;-89
2023/03/11 01:48:41;;;;;;;37.80;6.97;;;13.40;55.80;;;;;;5048547;28;20217;-89
2023/03/11 01:51:09;;;;;;;48.00;7.43;;;13.30;55.70;;;;;;5063433;28;20208;-89
2023/03/11 01:53:37;;;;;;;28.30;5.47;;;13.40;55.80;;;;;;5050871;28;20687;-89
2023/03/11 01:56:05;;;;;;;26.10;6.10;;;13.30;55.70;;;;;;5068852;28;20204;-89
2023/03/11 01:58:37;;;;;;;25.00;5.57;;;13.30;55.70;;;;;;5068589;28;20225;-88
2023/03/11 02:01:05;;;;;;;26.83;6.03;;;13.20;55.70;;;;;;5068197;28;20197;-89
2023/03/11 02:03:36;;;;;;;29.03;6.50;;;13.30;55.70;;;;;;5068539;28;20242;-88
2023/03/11 02:06:06;;;;;;;34.97;6.70;;;13.20;55.70;;;;;;5065600;28;20575;-89
2023/03/11 02:08:34;;;;;;;38.87;6.33;;;13.20;55.70;;;;;;5066943;28;20206;-90
2023/03/11 02:11:05;;;;;;;26.70;5.87;;;13.20;55.70;;;;;;5061139;28;20206;-89
2023/03/11 02:13:35;;;;;;;28.67;5.80;;;13.30;55.70;;;;;;5068637;28;20247;-89
2023/03/11 02:16:02;;;;;;;30.50;6.00;;;13.20;55.70;;;;;;5067739;28;20226;-89
2023/03/11 02:18:29;;;;;;;60.43;8.50;;;13.20;55.70;;;;;;5067387;28;20214;-88
2023/03/11 02:21:05;;;;;;;38.73;6.43;;;13.20;55.70;;;;;;5069220;28;20199;-90
2023/03/11 02:23:53;;;;;;;27.50;5.87;;;13.20;55.70;;;;;;5067481;28;20227;-91
2023/03/11 02:26:25;;;;;;;34.10;6.27;;;13.20;55.70;;;;;;5067328;28;20317;-90
2023/03/11 02:28:54;;;;;;;49.20;7.50;;;13.20;55.70;;;;;;5067385;28;20210;-91
2023/03/11 02:31:22;;;;;;;34.03;6.47;;;13.20;55.70;;;;;;5068602;28;20195;-89
2023/03/11 02:33:52;;;;;;;36.07;6.43;;;13.20;55.70;;;;;;5068598;28;20680;-89
2023/03/11 02:36:37;;;;;;;30.90;6.03;;;13.20;55.70;;;;;;5068460;28;20206;-90
2023/03/11 02:39:04;;;;;;;34.77;6.50;;;13.10;55.60;;;;;;5067402;28;20200;-90
2023/03/11 02:41:32;;;;;;;27.10;6.33;;;13.20;55.70;;;;;;5068944;28;20223;-90
2023/03/11 02:44:02;;;;;;;43.83;7.47;;;13.10;55.60;;;;;;5068161;28;20238;-89
2023/03/11 02:46:29;;;;;;;30.40;5.93;;;13.10;55.60;;;;;;5066395;28;20959;-89
2023/03/11 02:48:57;;;;;;;36.57;6.33;;;13.10;55.70;;;;;;5067901;28;20213;-89
2023/03/11 02:51:24;;;;;;;43.27;7.10;;;13.10;55.60;;;;;;5066656;28;20207;-88
2023/03/11 02:53:55;;;;;;;38.50;6.77;;;13.10;55.70;;;;;;5067105;28;20216;-89
2023/03/11 02:56:22;;;;;;;36.37;6.37;;;13.10;55.70;;;;;;5071387;28;20304;-89
2023/03/11 02:58:49;;;;;;;29.67;6.03;;;13.10;55.60;;;;;;5071408;28;20649;-89
2023/03/11 03:01:18;;;;;;;37.20;6.60;;;13.10;55.70;;;;;;5070384;28;20241;-88
2023/03/11 03:03:44;;;;;;;34.30;6.87;;;13.00;55.50;;;;;;5071232;28;20227;-89
2023/03/11 03:06:12;;;;;;;30.03;6.20;;;13.10;55.60;;;;;;5070352;28;20207;-89
2023/03/11 03:08:38;;;;;;;33.13;6.23;;;13.00;55.60;;;;;;5072003;28;20675;-89
2023/03/11 03:11:05;;;;;;;25.27;5.97;;;13.00;55.60;;;;;;5071759;28;20733;-89
2023/03/11 03:13:32;;;;;;;30.47;6.47;;;13.10;55.70;;;;;;5071679;28;20209;-88
2023/03/11 03:16:00;;;;;;;22.53;5.77;;;13.00;55.60;;;;;;5057491;28;20249;-89
2023/03/11 03:18:29;;;;;;;40.60;6.93;;;13.00;55.60;;;;;;5071096;28;20665;-89
2023/03/11 03:20:56;;;;;;;27.80;5.77;;;13.00;55.60;;;;;;5067823;28;20610;-89
2023/03/11 03:23:23;;;;;;;24.63;5.67;;;13.00;55.50;;;;;;5070183;28;20679;-89
2023/03/11 03:25:50;;;;;;;24.17;5.40;;;13.00;55.50;;;;;;5071729;28;20222;-89
2023/03/11 03:28:17;;;;;;;35.30;6.47;;;13.00;55.60;;;;;;5071442;28;20203;-89
2023/03/11 03:30:44;;;;;;;42.87;7.30;;;13.00;55.60;;;;;;5071094;28;20199;-89
2023/03/11 03:33:11;;;;;;;30.37;6.07;;;13.00;56.20;;;;;;5071110;28;20203;-89
2023/03/11 03:35:43;;;;;;;29.63;6.03;;;12.90;55.50;;;;;;5070123;28;20637;-89
2023/03/11 03:38:10;;;;;;;31.60;6.27;;;13.10;55.70;;;;;;5070326;28;20211;-89
2023/03/11 03:40:37;;;;;;;30.33;6.17;;;13.00;55.60;;;;;;5070467;28;20713;-89
2023/03/11 03:43:04;;;;;;;34.53;6.47;;;12.90;55.50;;;;;;5069923;28;20257;-89
2023/03/11 03:45:31;;;;;;;34.87;6.87;;;12.90;55.50;;;;;;5071473;28;20250;-89
2023/03/11 03:47:58;;;;;;;41.47;7.10;;;12.90;55.50;;;;;;5071757;28;20201;-89
2023/03/11 03:50:25;;;;;;;42.23;7.33;;;12.90;55.50;;;;;;5070286;28;20214;-89
2023/03/11 03:52:53;;;;;;;25.77;5.53;;;12.90;55.50;;;;;;5070497;28;20598;-89
2023/03/11 03:55:23;;;;;;;35.73;6.47;;;12.80;55.40;;;;;;5070837;28;20561;-89
2023/03/11 03:57:50;;;;;;;31.00;6.30;;;12.90;55.50;;;;;;5069890;28;20206;-89
2023/03/11 04:00:18;;;;;;;34.60;6.53;;;12.90;55.50;;;;;;5070690;28;20216;-89
2023/03/11 04:02:45;;;;;;;27.57;5.60;;;12.90;55.50;;;;;;5069335;28;20203;-89
2023/03/11 04:05:12;;;;;;;31.13;6.03;;;12.90;55.50;;;;;;5069673;28;20215;-89
2023/03/11 04:07:39;;;;;;;35.63;6.57;;;12.90;55.50;;;;;;5068290;28;20213;-89
2023/03/11 04:10:09;;;;;;;28.43;6.03;;;12.90;55.50;;;;;;5069943;28;20207;-88
2023/03/11 04:12:35;;;;;;;25.47;5.57;;;12.90;55.50;;;;;;5070484;28;20203;-89
2023/03/11 04:15:02;;;;;;;26.70;5.93;;;12.80;55.40;;;;;;5069966;28;20209;-89
2023/03/11 04:17:29;;;;;;;31.77;6.43;;;12.80;55.40;;;;;;5069555;28;20666;-89
2023/03/11 04:19:56;;;;;;;26.73;5.97;;;12.80;55.40;;;;;;5069588;28;20214;-89
2023/03/11 04:22:23;;;;;;;48.17;7.60;;;12.80;55.40;;;;;;5068224;28;20659;-89
2023/03/11 04:24:50;;;;;;;25.53;5.83;;;12.80;55.40;;;;;;5070455;28;20241;-88
2023/03/11 04:27:18;;;;;;;32.20;6.97;;;12.80;55.40;;;;;;5071109;28;20205;-89
2023/03/11 04:29:45;;;;;;;19.87;5.03;;;12.80;55.30;;;;;;5072256;28;20197;-89
2023/03/11 04:32:12;;;;;;;25.27;5.73;;;12.80;55.40;;;;;;5069693;28;20195;-88
2023/03/11 04:34:39;;;;;;;27.37;5.97;;;12.80;55.40;;;;;;5070046;28;20205;-89
2023/03/11 04:37:06;;;;;;;31.00;6.50;;;12.80;55.40;;;;;;5069648;28;20308;-88
2023/03/11 04:39:33;;;;;;;30.70;6.77;;;12.70;55.30;;;;;;5069632;28;20647;-89
2023/03/11 04:42:00;;;;;;;23.27;5.83;;;12.70;55.30;;;;;;5069246;28;20224;-89
2023/03/11 04:44:28;;;;;;;30.27;6.20;;;12.70;55.30;;;;;;5070238;28;20271;-89
2023/03/11 04:46:55;;;;;;;26.70;5.83;;;12.80;55.40;;;;;;5070168;28;20204;-89
2023/03/11 04:49:22;;;;;;;30.43;6.43;;;12.70;55.30;;;;;;5069690;28;20198;-89
2023/03/11 04:51:51;;;;;;;30.57;6.47;;;12.80;55.30;;;;;;5069118;28;20204;-90
2023/03/11 04:54:18;;;;;;;36.77;6.60;;;12.70;55.30;;;;;;5069999;28;20282;-90
2023/03/11 04:56:45;;;;;;;33.33;6.50;;;12.70;55.30;;;;;;5070441;28;20682;-90
2023/03/11 04:59:12;;;;;;;26.97;6.00;;;12.70;55.30;;;;;;5070186;28;20205;-90
2023/03/11 05:01:42;;;;;;;29.07;6.50;;;12.70;55.20;;;;;;5068718;28;20199;-90
2023/03/11 05:04:11;;;;;;;25.50;5.60;;;12.70;55.20;;;;;;5065689;28;20226;-90
2023/03/11 05:06:37;;;;;;;28.73;6.27;;;12.60;55.20;;;;;;5069487;28;20212;-90
2023/03/11 05:09:05;;;;;;;23.70;5.63;;;12.70;55.30;;;;;;5069841;28;20206;-89
2023/03/11 05:11:32;;;;;;;33.17;6.77;;;12.60;55.20;;;;;;5068829;28;20221;-90
2023/03/11 05:13:58;;;;;;;36.13;6.73;;;12.80;55.40;;;;;;5069980;28;20555;-90
2023/03/11 05:16:25;;;;;;;48.90;7.90;;;12.60;55.20;;;;;;5068137;28;20198;-89
2023/03/11 05:19:29;;;;;;;23.17;5.40;;;12.60;55.20;;;;;;5071230;28;20207;-90
2023/03/11 05:21:55;;;;;;;28.40;6.17;;;12.60;55.10;;;;;;5068687;28;20209;-90
2023/03/11 05:24:22;;;;;;;29.83;6.60;;;12.60;55.10;;;;;;5066821;28;20294;-89
2023/03/11 05:26:49;;;;;;;29.47;6.13;;;12.60;55.20;;;;;;5070383;28;20212;-89
2023/03/11 05:29:16;;;;;;;38.00;6.63;;;12.60;55.20;;;;;;5069089;28;20198;-89
2023/03/11 05:31:43;;;;;;;25.30;5.47;;;12.60;55.20;;;;;;5067992;28;20261;-89
2023/03/11 05:34:14;;;;;;;39.53;7.43;;;12.60;55.20;;;;;;5061579;28;20676;-90
2023/03/11 05:36:40;;;;;;;27.60;6.10;;;12.60;55.10;;;;;;5069527;28;20198;-89
2023/03/11 05:39:07;;;;;;;54.27;7.83;;;12.60;55.20;;;;;;5066221;28;20723;-89
2023/03/11 05:41:35;;;;;;;37.83;7.00;;;12.50;55.10;;;;;;5068092;28;20212;-89
2023/03/11 05:44:02;;;;;;;53.13;8.13;;;12.60;55.20;;;;;;5069526;28;20227;-89
2023/03/11 05:46:29;;;;;;;40.87;7.30;;;12.50;55.10;;;;;;5064238;28;20292;-88
2023/03/11 05:48:56;;;;;;;28.23;6.03;;;12.50;55.10;;;;;;5069307;28;20286;-89
2023/03/11 05:51:24;;;;;;;23.57;6.07;;;12.50;55.10;;;;;;5069218;28;20918;-88
2023/03/11 05:53:51;;;;;;;33.63;6.53;;;12.50;55.10;;;;;;5068838;28;20217;-89
2023/03/11 05:56:19;;;;;;;25.73;6.10;;;12.50;55.10;;;;;;5068818;28;20657;-89
2023/03/11 05:58:46;;;;;;;30.83;6.07;;;12.50;55.10;;;;;;5068304;28;20564;-89
2023/03/11 06:01:15;;;;;;;27.70;6.17;;;12.40;55.10;;;;;;5067144;28;20210;-89
2023/03/11 06:03:43;;;;;;;33.57;6.43;;;12.40;55.00;;;;;;5068130;28;20714;-89
2023/03/11 06:06:12;;;;;;;26.60;6.57;;;12.40;55.00;;;;;;5067688;28;20251;-89
2023/03/11 06:08:44;;;;;;;23.07;5.77;;;12.50;55.10;;;;;;5068476;28;20208;-89
2023/03/11 06:11:11;;;;;;;30.87;6.70;;;12.40;55.00;;;;;;5067889;28;20200;-89
2023/03/11 06:13:38;;;;;;;38.00;6.93;;;12.40;55.10;;;;;;5066802;28;20212;-89
2023/03/11 06:16:06;;;;;;;24.77;5.93;;;12.40;55.00;;;;;;5066802;28;20602;-89
2023/03/11 06:18:33;;;;;;;23.40;5.77;;;12.40;55.00;;;;;;5068417;28;20221;-89
2023/03/11 06:21:01;;;;;;;30.20;6.00;;;12.40;55.00;;;;;;5068653;28;20208;-89
2023/03/11 06:23:29;;;;;;;32.00;6.73;;;12.50;55.10;;;;;;5066622;28;20658;-89
2023/03/11 06:25:58;;;;;;;28.00;6.07;;;12.40;55.00;;;;;;5068182;28;20203;-89
2023/03/11 06:28:26;;;;;;;52.97;8.50;;;12.40;55.00;;;;;;5064840;28;20292;-89
2023/03/11 06:30:55;;;;;;;31.00;6.43;;;12.40;55.00;;;;;;5067069;28;20195;-90
2023/03/11 06:33:23;;;;;;;32.00;6.10;;;12.40;55.00;;;;;;5067422;28;20210;-90
2023/03/11 06:35:57;;;;;;;38.67;6.93;;;12.40;55.00;;;;;;5068747;28;20227;-91
2023/03/11 06:38:24;;;;;;;31.77;6.57;;;12.40;54.90;;;;;;5068322;28;20244;-89
2023/03/11 06:40:52;;;;;;;33.17;6.23;;;12.30;54.90;;;;;;5068038;28;20226;-89
2023/03/11 06:43:23;;;;;;;35.93;6.70;;;12.30;54.90;;;;;;5067171;28;20548;-88
2023/03/11 06:45:50;;;;;;;35.83;7.00;;;12.30;54.90;;;;;;5066402;28;20233;-89
2023/03/11 06:48:16;;;;;;;28.00;6.23;;;12.30;54.90;;;;;;5068093;28;20227;-89
2023/03/11 06:50:43;;;;;;;31.87;6.67;;;12.30;54.90;;;;;;5066738;28;20199;-88
2023/03/11 06:53:10;;;;;;;24.30;5.90;;;12.20;54.80;;;;;;5066124;28;20733;-89
2023/03/11 06:55:37;;;;;;;30.77;6.23;;;12.30;54.90;;;;;;5067800;28;20217;-89
2023/03/11 06:58:04;;;;;;;32.63;6.73;;;12.30;54.90;;;;;;5066933;28;20282;-89
2023/03/11 07:00:32;;;;;;;32.83;7.03;;;12.30;54.90;;;;;;5066158;28;20320;-89
2023/03/11 07:02:59;;;;;;;46.43;8.20;;;12.20;54.80;;;;;;5066717;28;20672;-89
2023/03/11 07:05:26;;;;;;;28.80;6.47;;;12.20;55.40;;;;;;5067658;28;20241;-90
2023/03/11 07:07:54;;;;;;;28.80;6.23;;;12.30;54.90;;;;;;5067424;28;20669;-90
2023/03/11 07:10:21;;;;;;;30.70;7.00;;;12.20;54.80;;;;;;5067058;28;20209;-90
2023/03/11 07:12:48;;;;;;;60.27;9.07;;;12.20;54.80;;;;;;5063331;28;20199;-88
2023/03/11 07:15:16;;;;;;;26.50;6.33;;;12.20;54.80;;;;;;5047995;28;20206;-89
2023/03/11 07:17:44;;;;;;;25.67;6.73;;;12.20;55.40;;;;;;5047887;28;20205;-89
2023/03/11 07:20:12;;;;;;;31.77;7.40;;;12.20;54.80;;;;;;5048062;28;20293;-89
2023/03/11 07:22:39;;;;;;;35.17;6.43;;;12.20;54.80;;;;;;5054970;28;20207;-89
2023/03/11 07:25:06;;;;;;;33.90;7.07;;;12.20;54.80;;;;;;5067537;28;20238;-90
2023/03/11 07:27:33;;;;;;;28.13;6.27;;;12.20;54.80;;;;;;5066540;28;20217;-89
2023/03/11 07:30:01;;;;;;;31.43;6.73;;;12.20;54.80;;;;;;5066993;28;20663;-90
2023/03/11 07:32:28;;;;;;;24.10;5.87;;;12.20;54.80;;;;;;5067991;28;20196;-88
2023/03/11 07:34:56;;;;;;;31.23;6.60;;;12.20;54.80;;;;;;5065754;28;20210;-90
2023/03/11 07:37:23;;;;;;;27.20;6.53;;;12.20;54.80;;;;;;5068065;28;20202;-90
2023/03/11 07:39:50;;;;;;;44.87;8.00;;;12.10;54.80;;;;;;5068214;28;20203;-90
2023/03/11 07:42:18;;;;;;;23.07;6.67;;;12.10;54.80;;;;;;5070408;28;20238;-90
2023/03/11 07:44:44;;;;;;;26.23;6.77;;;12.10;54.80;;;;;;5070448;28;20255;-90
2023/03/11 07:47:11;;;;;;;36.60;6.90;;;12.10;54.80;;;;;;5064405;28;20231;-90
2023/03/11 07:49:38;;;;;;;26.23;6.13;;;12.10;54.80;;;;;;5058772;28;20210;-90
2023/03/11 07:52:07;;;;;;;24.23;6.20;;;12.10;54.80;;;;;;5060035;28;20201;-89
2023/03/11 07:54:34;;;;;;;34.37;7.17;;;12.10;54.80;;;;;;5079131;28;20206;-90
2023/03/11 07:57:02;;;;;;;27.93;6.40;;;12.10;54.80;;;;;;5069605;28;20201;-90
2023/03/11 07:59:29;;;;;;;32.70;6.90;;;12.10;54.80;;;;;;5070215;28;20199;-92
2023/03/11 08:01:56;;;;;;;27.93;6.50;;;12.10;54.80;;;;;;5071499;28;20182;-91
2023/03/11 08:04:23;;;;;;;26.40;6.70;;;12.00;54.80;;;;;;5071383;28;20229;-90
2023/03/11 08:06:50;;;;;;;26.83;6.50;;;12.10;54.80;;;;;;5062404;28;20216;-89
2023/03/11 08:09:18;;;;;;;30.53;6.70;;;12.20;54.90;;;;;;5071135;28;20548;-88
2023/03/11 08:11:45;;;;;;;33.03;7.13;;;12.10;54.80;;;;;;5070057;28;20200;-89
2023/03/11 08:14:12;;;;;;;24.83;6.20;;;12.10;54.90;;;;;;5070490;28;20200;-89
2023/03/11 08:16:46;;;;;;;28.23;6.57;;;12.00;54.80;;;;;;5071329;28;20216;-89
2023/03/11 08:19:14;;;;;;;33.23;7.07;;;12.00;54.80;;;;;;5070649;28;20199;-89
2023/03/11 08:21:41;;;;;;;36.37;6.70;;;12.00;54.80;;;;;;5070923;28;20289;-89
2023/03/11 08:24:10;;;;;;;35.90;7.67;;;12.20;55.00;;;;;;5051579;28;20216;-88
2023/03/11 08:26:39;;;;;;;28.37;6.47;;;12.10;54.90;;;;;;5061099;28;20542;-89
2023/03/11 08:29:07;;;;;;;29.47;7.07;;;12.10;54.90;;;;;;5070019;28;20556;-89
2023/03/11 08:31:34;;;;;;;31.90;6.97;;;12.00;54.90;;;;;;5070126;28;20207;-89
2023/03/11 08:34:04;;;;;;;38.03;7.93;;;12.10;55.00;;;;;;5069274;28;20216;-88
2023/03/11 08:36:31;;;;;;;34.13;7.33;;;12.00;54.90;;;;;;5069882;28;20194;-89
2023/03/11 08:38:58;;;;;;;28.37;7.17;;;12.00;54.90;;;;;;5063337;28;20204;-89
2023/03/11 08:41:26;;;;;;;24.97;7.07;;;12.00;54.90;;;;;;5050139;28;20216;-91
2023/03/11 08:43:54;;;;;;;32.13;7.23;;;12.00;54.90;;;;;;5065879;28;20820;-90
2023/03/11 08:46:25;;;;;;;30.50;7.17;;;12.00;54.90;;;;;;5070367;28;20859;-90
2023/03/11 08:48:52;;;;;;;33.63;7.27;;;12.00;55.00;;;;;;5069613;28;20266;-90
2023/03/11 08:51:20;;;;;;;35.83;7.33;;;12.00;55.00;;;;;;5069548;28;20207;-89
2023/03/11 08:53:48;;;;;;;34.13;7.03;;;12.10;55.60;;;;;;5068206;28;20671;-88
2023/03/11 08:56:15;;;;;;;20.77;6.63;;;12.00;55.00;;;;;;5069662;28;20610;-88
2023/03/11 08:58:42;;;;;;;28.87;7.17;;;12.00;55.00;;;;;;5070050;28;20199;-89
2023/03/11 09:01:12;;;;;;;34.20;7.80;;;12.00;55.00;;;;;;5069916;28;20207;-90
2023/03/11 09:03:40;;;;;;;37.13;7.80;;;12.10;55.10;;;;;;5069411;28;20214;-88
2023/03/11 09:06:09;;;;;;;33.37;7.30;;;12.00;55.00;;;;;;5068453;28;20214;-89
2023/03/11 09:08:36;;;;;;;31.13;7.17;;;12.10;55.10;;;;;;5069805;28;20236;-89
2023/03/11 09:11:04;;;;;;;34.13;7.73;;;12.00;55.00;;;;;;5069641;28;20217;-90
2023/03/11 09:13:31;;;;;;;27.23;6.90;;;12.10;55.10;;;;;;5069737;28;20215;-89
2023/03/11 09:15:58;;;;;;;34.20;7.53;;;12.10;55.20;;;;;;5069339;28;20200;-88
2023/03/11 09:18:28;;;;;;;36.37;7.50;;;12.10;55.20;;;;;;5069002;28;20529;-89
2023/03/11 09:20:57;;;;;;;34.87;7.37;;;12.10;55.20;;;;;;5066069;28;20210;-88
2023/03/11 09:23:23;;;;;;;32.40;7.43;;;12.10;55.20;;;;;;5069007;28;20219;-89
2023/03/11 09:25:50;;;;;;;28.63;7.37;;;12.10;55.20;;;;;;5068619;28;20708;-88
2023/03/11 09:28:17;;;;;;;32.70;7.03;;;12.10;55.20;;;;;;5069015;28;20293;-88
2023/03/11 09:30:44;;;;;;;27.60;6.77;;;12.10;55.20;;;;;;5069451;28;20831;-89
2023/03/11 09:33:11;;;;;;;38.53;7.40;;;12.10;55.20;;;;;;5069313;28;21038;-88
2023/03/11 09:35:40;;;;;;;25.57;6.67;;;12.10;55.20;;;;;;5067329;28;20239;-88
2023/03/11 09:38:07;;;;;;;31.40;6.93;;;12.10;55.20;;;;;;5069301;28;20206;-89
2023/03/11 09:40:49;;;;;;;34.27;7.00;;;12.10;55.20;;;;;;5069215;28;20232;-88
2023/03/11 09:43:28;;;;;;;35.23;6.87;;;12.10;55.20;;;;;;5069355;28;20199;-88
2023/03/11 09:46:04;;;;;;;26.73;6.70;;;12.20;55.30;;;;;;5069206;28;20224;-88
2023/03/11 09:48:37;;;;;;;36.23;7.00;;;12.20;55.30;;;;;;5068984;28;20204;-88
2023/03/11 09:51:11;;;;;;;23.47;6.37;;;12.20;55.30;;;;;;5066601;28;20198;-89
2023/03/11 09:53:41;;;;;;;28.77;6.97;;;12.20;55.30;;;;;;5065910;28;20211;-92
2023/03/11 09:56:10;;;;;;;32.83;7.43;;;12.20;55.30;;;;;;5066710;28;20216;-89
2023/03/11 09:58:44;;;;;;;56.97;8.13;;;12.20;55.30;;;;;;5067373;28;20207;-88
2023/03/11 10:01:16;;;;;;;63.80;9.23;;;12.30;55.50;;;;;;5068374;28;20257;-85
2023/03/11 10:03:44;;;;;;;28.83;6.67;;;12.30;55.50;;;;;;5066511;28;20213;-88
2023/03/11 10:06:21;;;;;;;34.73;7.10;;;12.30;55.50;;;;;;5069172;28;20261;-91
2023/03/11 10:08:56;;;;;;;31.23;7.30;;;12.30;55.50;;;;;;5069865;28;20201;-90
2023/03/11 10:11:35;;;;;;;43.13;7.30;;;12.30;55.50;;;;;;5068481;28;20307;-90
2023/03/11 10:14:13;;;;;;;32.23;6.77;;;12.30;55.50;;;;;;5069328;28;20196;-91
2023/03/11 10:16:47;;;;;;;27.40;6.37;;;12.30;55.50;;;;;;5068441;28;20942;-89
2023/03/11 10:19:24;;;;;;;34.03;6.97;;;12.30;55.50;;;;;;5069147;28;20202;-92
2023/03/11 10:21:59;;;;;;;38.27;6.80;;;12.30;55.50;;;;;;5069253;28;20613;-91
2023/03/11 10:25:05;;;;;;;36.70;6.93;;;12.30;55.50;;;;;;5069040;28;20582;-91
2023/03/11 10:27:37;;;;;;;26.70;5.70;;;12.40;55.60;;;;;;5060294;28;20583;-91
2023/03/11 10:30:11;;;;;;;26.40;5.87;;;12.40;55.60;;;;;;5068939;28;20209;-88
2023/03/11 10:32:42;;;;;;;31.40;6.63;;;12.40;55.60;;;;;;5068038;28;20734;-87
2023/03/11 10:35:18;;;;;;;33.50;6.40;;;12.40;55.60;;;;;;5068096;28;20206;-91
2023/03/11 10:37:53;;;;;;;31.43;5.93;;;12.40;55.60;;;;;;5068858;28;20189;-91
2023/03/11 10:40:25;;;;;;;31.73;6.20;;;12.50;55.70;;;;;;5067225;28;20228;-90
2023/03/11 10:42:57;;;;;;;27.57;6.17;;;12.40;55.60;;;;;;5068971;28;20209;-92
2023/03/11 10:45:25;;;;;;;24.03;5.77;;;12.50;55.60;;;;;;5068068;28;20221;-88
2023/03/11 10:47:52;;;;;;;24.37;5.87;;;12.50;55.70;;;;;;5068579;28;20202;-88
2023/03/11 10:50:20;;;;;;;31.43;6.17;;;12.60;55.70;;;;;;5068229;28;20583;-89
2023/03/11 10:53:07;;;;;;;28.10;5.83;;;12.50;55.60;;;;;;5068455;28;20205;-87
2023/03/11 10:55:35;;;;;;;26.17;5.40;;;12.50;55.60;;;;;;5066498;28;20279;-88
2023/03/11 10:58:06;;;;;;;31.40;6.40;;;12.50;55.70;;;;;;5068137;28;20278;-88
2023/03/11 11:00:33;;;;;;;26.17;5.97;;;12.60;55.70;;;;;;5067716;28;20201;-89
2023/03/11 11:03:03;;;;;;;50.73;7.67;;;12.60;55.70;;;;;;5067694;28;20208;-88
2023/03/11 11:05:32;;;;;;;34.60;6.53;;;12.60;55.70;;;;;;5068068;28;20234;-87
2023/03/11 11:08:09;;;;;;;30.57;6.10;;;12.60;55.70;;;;;;5068653;28;20196;-87
2023/03/11 11:10:37;;;;;;;25.70;5.53;;;12.60;55.70;;;;;;5065129;28;20206;-87
2023/03/11 11:13:17;;;;;;;32.93;6.37;;;12.70;55.80;;;;;;5067922;28;20209;-87
2023/03/11 11:15:53;;;;;;;25.13;5.97;;;12.70;55.80;;;;;;5069267;28;20205;-87
2023/03/11 11:18:24;;;;;;;27.30;6.27;;;12.80;55.80;;;;;;5069667;28;20204;-91
2023/03/11 11:20:59;;;;;;;25.00;5.83;;;12.70;55.70;;;;;;5066365;28;20655;-92
2023/03/11 11:23:32;;;;;;;45.87;7.30;;;12.70;55.70;;;;;;5065640;28;20229;-90
2023/03/11 11:26:00;;;;;;;39.30;6.40;;;12.70;55.70;;;;;;5071531;28;20225;-90
2023/03/11 11:28:28;;;;;;;37.73;6.43;;;12.70;55.70;;;;;;5051597;28;20208;-90
2023/03/11 11:30:57;;;;;;;26.23;5.70;;;12.70;55.70;;;;;;5052666;28;20202;-92
2023/03/11 11:33:27;;;;;;;39.27;6.93;;;12.80;55.80;;;;;;5055381;28;20298;-87
2023/03/11 11:35:57;;;;;;;33.03;6.60;;;12.80;55.80;;;;;;5062375;28;20208;-90
2023/03/11 11:38:30;;;;;;;37.17;6.70;;;12.80;55.80;;;;;;5066831;28;20660;-87
2023/03/11 11:40:59;;;;;;;32.00;6.30;;;12.80;55.80;;;;;;5072321;28;20229;-86
2023/03/11 11:43:38;;;;;;;30.43;6.30;;;12.80;55.80;;;;;;5066665;28;20313;-87
2023/03/11 11:46:11;;;;;;;28.97;5.77;;;12.80;55.80;;;;;;5071364;28;20317;-88
2023/03/11 11:48:46;;;;;;;37.83;6.57;;;13.00;55.90;;;;;;5070534;28;20203;-87
2023/03/11 11:51:21;;;;;;;44.73;6.90;;;13.00;55.90;;;;;;5067560;28;20191;-89
2023/03/11 11:53:55;;;;;;;31.00;5.63;;;12.90;55.90;;;;;;5068972;28;20210;-88
2023/03/11 11:56:29;;;;;;;34.53;6.87;;;12.90;55.90;;;;;;5068275;28;20225;-88
2023/03/11 11:58:56;;;;;;;27.43;6.13;;;12.90;55.90;;;;;;5059038;28;20546;-89
2023/03/11 12:01:36;;;;;;;32.70;6.37;;;12.90;55.90;;;;;;5068972;28;20218;-87
2023/03/11 12:04:27;;;;;;;41.23;6.93;;;12.90;55.90;;;;;;5068327;28;20216;-91
2023/03/11 12:07:10;;;;;;;39.73;7.13;;;12.90;55.90;;;;;;5057187;28;20222;-90
2023/03/11 12:09:47;;;;;;;31.73;6.13;;;13.00;55.90;;;;;;5070106;28;20644;-91
2023/03/11 12:12:24;;;;;;;26.50;6.23;;;13.00;55.90;;;;;;5069749;28;20268;-89
2023/03/11 12:14:59;;;;;;;24.23;5.83;;;13.00;55.90;;;;;;5065298;28;20207;-89
2023/03/11 12:17:29;;;;;;;39.73;7.03;;;13.00;55.90;;;;;;5057968;28;20299;-88
2023/03/11 12:20:00;;;;;;;34.77;6.60;;;13.10;56.00;;;;;;5069738;28;20668;-87
2023/03/11 12:22:45;;;;;;;60.83;9.00;;;13.10;56.00;;;;;;5068460;28;20202;-89
2023/03/11 12:25:24;;;;;;;37.93;6.67;;;13.10;56.00;;;;;;5065549;28;20198;-87
2023/03/11 12:27:58;;;;;;;37.27;6.77;;;13.10;56.00;;;;;;5058548;28;20204;-88
2023/03/11 12:30:29;;;;;;;45.37;7.33;;;13.10;56.00;;;;;;5067643;28;20207;-87
2023/03/11 12:33:03;;;;;;;36.37;6.60;;;13.10;56.00;;;;;;5056040;28;20292;-88
2023/03/11 12:35:34;;;;;;;51.13;7.37;;;13.20;56.10;;;;;;5050068;28;20572;-88
2023/03/11 12:38:14;;;;;;;51.43;7.47;;;13.20;56.10;;;;;;5051767;28;20231;-89
2023/03/11 12:40:59;;;;;;;57.97;8.00;;;13.20;56.10;;;;;;5067646;28;20575;-92
2023/03/11 12:43:47;;;;;;;36.73;6.40;;;13.20;56.10;;;;;;5057260;28;20207;-87
2023/03/11 12:46:16;;;;;;;46.07;7.33;;;13.20;56.10;;;;;;5065854;28;20583;-88